Time;durP1;ratioP1;P1;durP2;ratioP2;P2;SDS_P1;SDS_P2;PMS_P1;PMS_P2;Temp;Humidity;BMP_temperature;BMP_pressure;BME280_temperature;BME280_humidity;BME280_pressure;Samples;Min_cycle;Max_cycle;Signal;HPM_P1;HPM_P2
2024/01/03 00:00:34;;;;;;;0.30;0.30;;;;;;;9.32;100.00;96145.63;2562939;28;20053;-87
2024/01/03 00:01:57;;;;;;;0.38;0.38;;;;;;;9.50;100.00;96147.19;2568780;28;20644;-87
2024/01/03 00:03:16;;;;;;;0.20;0.20;;;;;;;9.50;100.00;96141.97;2568062;28;20054;-87
2024/01/03 00:04:33;;;;;;;0.22;0.22;;;;;;;9.49;100.00;96146.38;2567414;28;20105;-87
2024/01/03 00:05:49;;;;;;;0.50;0.32;;;;;;;9.37;100.00;96147.13;2562723;28;20046;-88
2024/01/03 00:07:05;;;;;;;0.35;0.30;;;;;;;9.47;100.00;96130.78;2556779;28;20037;-87
2024/01/03 00:08:28;;;;;;;0.30;0.30;;;;;;;9.55;100.00;96146.00;2556280;28;20063;-87
2024/01/03 00:09:44;;;;;;;1.00;0.20;;;;;;;9.61;100.00;96136.94;2558625;28;20042;-87
2024/01/03 00:11:03;;;;;;;0.68;0.40;;;;;;;9.42;100.00;96138.06;2566784;28;20037;-87
2024/01/03 00:12:24;;;;;;;0.20;0.20;;;;;;;9.60;100.00;96138.72;2551987;29;20167;-87
2024/01/03 00:14:04;;;;;;;0.17;0.17;;;;;;;9.57;100.00;96146.75;2563057;28;20061;-87
2024/01/03 00:15:37;;;;;;;0.30;0.30;;;;;;;9.55;100.00;96142.56;2553973;28;20158;-87
2024/01/03 00:16:59;;;;;;;0.10;0.10;;;;;;;9.69;100.00;96141.69;2554119;29;20590;-87
2024/01/03 00:18:37;;;;;;;0.10;0.10;;;;;;;9.67;100.00;96147.03;2557189;29;20050;-87
2024/01/03 00:19:57;;;;;;;0.20;0.20;;;;;;;9.58;100.00;96140.59;2567314;28;20050;-88
2024/01/03 00:21:17;;;;;;;0.22;0.22;;;;;;;9.55;100.00;96143.38;2569681;28;20042;-87
2024/01/03 00:22:34;;;;;;;0.90;0.63;;;;;;;9.50;100.00;96141.97;2571729;28;20390;-87
2024/01/03 00:23:58;;;;;;;0.45;0.30;;;;;;;9.46;100.00;96138.72;2561754;28;20046;-88
2024/01/03 00:25:14;;;;;;;0.40;0.40;;;;;;;9.49;100.00;96135.06;2569592;28;20030;-87
2024/01/03 00:26:32;;;;;;;0.40;0.40;;;;;;;9.52;100.00;96145.34;2572084;28;20109;-86
2024/01/03 00:27:48;;;;;;;2.33;0.35;;;;;;;9.61;100.00;96145.63;2551151;29;20354;-87
2024/01/03 00:29:05;;;;;;;0.60;0.47;;;;;;;9.45;100.00;96144.91;2544876;29;20079;-87
2024/01/03 00:30:22;;;;;;;0.40;0.40;;;;;;;9.45;100.00;96150.13;2560831;28;20047;-88
2024/01/03 00:31:41;;;;;;;0.35;0.25;;;;;;;9.55;100.00;96160.84;2567025;28;20102;-87
2024/01/03 00:32:57;;;;;;;1.55;0.30;;;;;;;9.42;100.00;96156.34;2569388;28;20121;-87
2024/01/03 00:34:18;;;;;;;1.38;0.45;;;;;;;9.40;100.00;96153.00;2559652;28;20031;-87
2024/01/03 00:35:34;;;;;;;0.40;0.40;;;;;;;9.32;100.00;96155.22;2566032;28;20545;-87
2024/01/03 00:36:52;;;;;;;0.30;0.30;;;;;;;9.45;100.00;96148.31;2574038;28;20066;-88
2024/01/03 00:38:09;;;;;;;0.57;0.30;;;;;;;9.35;100.00;96144.59;2551545;29;20192;-87
2024/01/03 00:39:31;;;;;;;0.30;0.30;;;;;;;9.30;100.00;96157.09;2560279;28;20137;-87
2024/01/03 00:40:53;;;;;;;0.30;0.30;;;;;;;9.41;100.00;96162.50;2566282;28;20336;-87
2024/01/03 00:42:09;;;;;;;0.55;0.40;;;;;;;9.32;100.00;96150.84;2570770;28;20081;-86
2024/01/03 00:43:25;;;;;;;0.20;0.20;;;;;;;9.44;100.00;96158.88;2571478;28;20466;-87
2024/01/03 00:44:41;;;;;;;0.50;0.30;;;;;;;9.48;100.00;96168.22;2558653;28;20035;-87
2024/01/03 00:45:57;;;;;;;0.20;0.20;;;;;;;9.46;100.00;96162.25;2558069;28;20103;-87
2024/01/03 00:47:14;;;;;;;1.15;0.30;;;;;;;9.57;100.00;96161.59;2564111;28;20031;-87
2024/01/03 00:48:32;;;;;;;0.30;0.30;;;;;;;9.47;100.00;96166.53;2562228;28;20039;-87
2024/01/03 00:49:49;;;;;;;0.43;0.30;;;;;;;9.47;100.00;96164.75;2568398;28;20520;-87
2024/01/03 00:51:05;;;;;;;0.25;0.25;;;;;;;9.51;100.00;96167.19;2559018;28;20039;-87
2024/01/03 00:52:21;;;;;;;0.28;0.28;;;;;;;9.54;100.00;96159.97;2550021;29;20047;-87
2024/01/03 00:53:37;;;;;;;0.65;0.40;;;;;;;9.72;100.00;96165.88;2544185;28;20069;-86
2024/01/03 00:54:54;;;;;;;0.40;0.20;;;;;;;9.67;100.00;96165.31;2569216;28;20027;-87
2024/01/03 00:56:10;;;;;;;0.20;0.20;;;;;;;9.59;100.00;96171.00;2564770;28;20160;-88
2024/01/03 00:57:26;;;;;;;0.32;0.32;;;;;;;9.45;100.00;96156.16;2553593;28;20607;-87
2024/01/03 00:58:42;;;;;;;0.15;0.15;;;;;;;9.59;100.00;96162.31;2567252;28;20070;-86
2024/01/03 00:59:58;;;;;;;0.45;0.45;;;;;;;9.50;100.00;96173.31;2558835;28;20048;-87
2024/01/03 01:01:14;;;;;;;0.25;0.22;;;;;;;9.51;100.00;96164.56;2566156;28;20379;-87
2024/01/03 01:02:32;;;;;;;0.40;0.35;;;;;;;9.46;100.00;96176.13;2571607;28;20039;-87
2024/01/03 01:03:48;;;;;;;0.85;0.50;;;;;;;9.53;100.00;96168.75;2573754;28;20034;-87
2024/01/03 01:05:04;;;;;;;0.20;0.20;;;;;;;9.77;100.00;96170.81;2572366;28;20066;-87
2024/01/03 01:06:23;;;;;;;0.38;0.30;;;;;;;9.69;100.00;96168.69;2574919;28;20034;-87
2024/01/03 01:07:39;;;;;;;0.10;0.10;;;;;;;9.81;100.00;96161.03;2571948;28;20035;-87
2024/01/03 01:08:56;;;;;;;0.38;0.28;;;;;;;9.65;100.00;96176.78;2571527;28;20121;-86
2024/01/03 01:10:13;;;;;;;0.40;0.30;;;;;;;9.66;100.00;96163.66;2573459;28;20137;-87
2024/01/03 01:11:30;;;;;;;0.28;0.28;;;;;;;9.81;100.00;96168.88;2572402;28;20117;-87
2024/01/03 01:12:48;;;;;;;0.30;0.30;;;;;;;9.78;100.00;96185.56;2561238;28;20051;-87
2024/01/03 01:14:04;;;;;;;0.70;0.32;;;;;;;9.70;100.00;96172.97;2547035;29;20441;-87
2024/01/03 01:15:20;;;;;;;0.60;0.38;;;;;;;9.86;100.00;96178.09;2560727;28;20493;-86
2024/01/03 01:16:37;;;;;;;0.20;0.20;;;;;;;9.77;100.00;96191.72;2571915;28;20132;-87
2024/01/03 01:17:55;;;;;;;0.30;0.30;;;;;;;9.66;100.00;96173.25;2564417;28;20047;-87
2024/01/03 01:19:12;;;;;;;0.38;0.32;;;;;;;9.57;100.00;96185.94;2556655;28;20138;-87
2024/01/03 01:20:29;;;;;;;0.30;0.30;;;;;;;9.70;100.00;96185.16;2566615;28;20051;-87
2024/01/03 01:21:46;;;;;;;0.20;0.20;;;;;;;9.88;100.00;96175.38;2575101;28;20039;-86
2024/01/03 01:23:03;;;;;;;0.63;0.32;;;;;;;9.66;100.00;96188.91;2571141;28;20078;-87
2024/01/03 01:24:20;;;;;;;0.68;0.22;;;;;;;9.67;100.00;96190.59;2572710;28;20054;-87
2024/01/03 01:25:36;;;;;;;1.17;0.20;;;;;;;9.65;100.00;96190.69;2553600;29;20050;-87
2024/01/03 01:26:53;;;;;;;0.20;0.20;;;;;;;9.72;100.00;96191.16;2556831;28;20047;-87
2024/01/03 01:28:09;;;;;;;0.17;0.17;;;;;;;9.69;100.00;96186.97;2567389;28;20078;-87
2024/01/03 01:29:25;;;;;;;0.20;0.20;;;;;;;9.67;100.00;96185.38;2571781;28;20133;-87
2024/01/03 01:30:41;;;;;;;0.35;0.32;;;;;;;9.68;100.00;96182.69;2573601;28;20046;-87
2024/01/03 01:31:57;;;;;;;0.20;0.20;;;;;;;9.74;100.00;96189.31;2561568;28;20031;-87
2024/01/03 01:33:14;;;;;;;0.38;0.22;;;;;;;9.60;100.00;96198.81;2565056;28;20046;-87
2024/01/03 01:34:30;;;;;;;0.20;0.20;;;;;;;9.68;100.00;96198.34;2571985;28;20080;-87
2024/01/03 01:35:47;;;;;;;0.28;0.28;;;;;;;9.59;100.00;96191.91;2562979;28;20126;-87
2024/01/03 01:37:03;;;;;;;1.05;0.30;;;;;;;9.67;100.00;96201.91;2572292;28;20507;-87
2024/01/03 01:38:19;;;;;;;0.20;0.10;;;;;;;9.64;100.00;96196.00;2561858;28;20050;-87
2024/01/03 01:39:35;;;;;;;0.32;0.30;;;;;;;9.61;100.00;96210.94;2555255;28;20031;-87
2024/01/03 01:40:51;;;;;;;0.10;0.10;;;;;;;9.57;100.00;96206.00;2566277;28;20184;-86
2024/01/03 01:42:07;;;;;;;0.15;0.13;;;;;;;9.71;100.00;96208.59;2572969;28;20053;-87
2024/01/03 01:43:23;;;;;;;0.32;0.20;;;;;;;9.56;100.00;96204.31;2561726;28;20035;-87
2024/01/03 01:44:40;;;;;;;0.10;0.10;;;;;;;9.62;100.00;96214.38;2565544;28;20070;-87
2024/01/03 01:45:57;;;;;;;0.15;0.15;;;;;;;9.74;100.00;96207.59;2550224;29;20070;-88
2024/01/03 01:47:14;;;;;;;0.75;0.17;;;;;;;9.66;100.00;96213.28;2551435;28;20043;-87
2024/01/03 01:48:30;;;;;;;0.20;0.20;;;;;;;9.62;100.00;96209.16;2565233;28;20387;-87
2024/01/03 01:49:47;;;;;;;0.20;0.20;;;;;;;9.66;100.00;96217.66;2571665;28;20034;-87
2024/01/03 01:51:04;;;;;;;0.10;0.10;;;;;;;9.63;100.00;96220.47;2568964;28;20042;-87
2024/01/03 01:52:23;;;;;;;0.03;0.03;;;;;;;9.47;100.00;96219.59;2574314;28;20070;-87
2024/01/03 01:53:41;;;;;;;0.20;0.20;;;;;;;9.38;100.00;96216.69;2552268;28;20117;-87
2024/01/03 01:55:00;;;;;;;0.28;0.28;;;;;;;9.53;100.00;96223.63;2560246;28;20120;-87
2024/01/03 01:56:17;;;;;;;0.10;0.10;;;;;;;9.64;100.00;96223.00;2571862;28;20129;-87
2024/01/03 01:57:35;;;;;;;0.10;0.10;;;;;;;9.78;100.00;96229.13;2557465;29;20055;-87
2024/01/03 01:58:51;;;;;;;0.22;0.20;;;;;;;9.52;100.00;96234.16;2562678;28;20148;-87
2024/01/03 02:00:09;;;;;;;0.20;0.20;;;;;;;9.47;100.00;96237.88;2558675;28;20086;-86
2024/01/03 02:01:28;;;;;;;0.10;0.10;;;;;;;9.70;100.00;96240.03;2556850;28;20023;-87
2024/01/03 02:02:46;;;;;;;0.20;0.20;;;;;;;9.45;100.00;96234.50;2565769;28;20085;-86
2024/01/03 02:04:07;;;;;;;0.20;0.13;;;;;;;9.69;100.00;96248.81;2566955;28;20038;-87
2024/01/03 02:05:23;;;;;;;0.20;0.20;;;;;;;9.55;100.00;96232.19;2554263;28;20082;-87
2024/01/03 02:06:39;;;;;;;0.20;0.20;;;;;;;9.58;100.00;96239.88;2555031;28;20043;-87
2024/01/03 02:07:55;;;;;;;0.30;0.30;;;;;;;9.58;100.00;96233.78;2564500;28;20046;-86
2024/01/03 02:09:11;;;;;;;0.25;0.25;;;;;;;9.77;100.00;96232.69;2573420;28;20060;-87
2024/01/03 02:10:27;;;;;;;0.90;0.40;;;;;;;9.57;100.00;96235.59;2572218;28;20077;-87
2024/01/03 02:11:47;;;;;;;0.10;0.10;;;;;;;9.73;100.00;96232.03;2574564;28;20040;-87
2024/01/03 02:13:03;;;;;;;0.25;0.25;;;;;;;9.74;100.00;96234.56;2551958;29;20043;-87
2024/01/03 02:14:19;;;;;;;0.65;0.15;;;;;;;9.88;100.00;96238.09;2561557;28;20081;-85
2024/01/03 02:15:37;;;;;;;0.20;0.20;;;;;;;9.84;100.00;96240.06;2559643;28;20408;-87
2024/01/03 02:16:53;;;;;;;0.20;0.20;;;;;;;9.95;100.00;96228.09;2560983;28;20525;-87
2024/01/03 02:18:10;;;;;;;1.65;0.15;;;;;;;9.81;100.00;96231.59;2561247;28;20110;-86
2024/01/03 02:19:26;;;;;;;0.10;0.10;;;;;;;9.86;100.00;96234.75;2565948;28;20043;-86
2024/01/03 02:20:43;;;;;;;0.50;0.20;;;;;;;9.84;100.00;96237.44;2561509;28;20447;-86
2024/01/03 02:22:00;;;;;;;0.20;0.20;;;;;;;9.71;100.00;96232.13;2560419;28;20042;-87
2024/01/03 02:23:16;;;;;;;0.13;0.13;;;;;;;9.72;100.00;96232.97;2560436;28;20073;-86
2024/01/03 02:24:33;;;;;;;1.20;0.40;;;;;;;9.78;100.00;96226.50;2554614;28;20554;-86
2024/01/03 02:25:49;;;;;;;0.22;0.22;;;;;;;9.89;100.00;96231.94;2562447;28;20081;-87
2024/01/03 02:27:08;;;;;;;0.20;0.20;;;;;;;9.88;100.00;96231.13;2562365;28;20632;-87
2024/01/03 02:28:25;;;;;;;0.20;0.10;;;;;;;10.03;100.00;96244.19;2556385;28;20057;-87
2024/01/03 02:29:41;;;;;;;0.20;0.20;;;;;;;9.81;100.00;96235.00;2564368;28;20062;-87
2024/01/03 02:30:58;;;;;;;0.20;0.20;;;;;;;10.03;100.00;96233.72;2560610;28;20515;-86
2024/01/03 02:32:16;;;;;;;0.57;0.30;;;;;;;9.84;100.00;96241.84;2542554;29;20056;-87
2024/01/03 02:33:31;;;;;;;0.17;0.17;;;;;;;9.99;100.00;96234.84;2558637;28;20041;-87
2024/01/03 02:34:49;;;;;;;0.32;0.20;;;;;;;9.91;100.00;96229.25;2568553;28;20077;-86
2024/01/03 02:36:06;;;;;;;0.28;0.20;;;;;;;10.02;100.00;96230.25;2560441;28;20039;-87
2024/01/03 02:37:24;;;;;;;0.32;0.20;;;;;;;9.96;100.00;96233.25;2560591;28;20046;-87
2024/01/03 02:38:45;;;;;;;1.10;0.60;;;;;;;9.86;100.00;96237.34;2551177;29;20048;-86
2024/01/03 02:40:01;;;;;;;0.20;0.20;;;;;;;9.95;100.00;96236.81;2554034;28;20047;-86
2024/01/03 02:41:17;;;;;;;0.28;0.28;;;;;;;10.00;100.00;96239.16;2561365;28;20050;-87
2024/01/03 02:42:32;;;;;;;0.40;0.30;;;;;;;9.93;100.00;96251.75;2564373;28;20404;-86
2024/01/03 02:43:48;;;;;;;0.30;0.20;;;;;;;10.02;100.00;96256.41;2571758;28;20086;-87
2024/01/03 02:45:05;;;;;;;1.95;0.28;;;;;;;9.93;100.00;96236.06;2563020;28;20512;-87
2024/01/03 02:46:21;;;;;;;0.30;0.15;;;;;;;10.04;100.00;96241.44;2561163;28;20499;-87
2024/01/03 02:47:37;;;;;;;0.47;0.10;;;;;;;10.13;100.00;96234.00;2568661;28;20038;-86
2024/01/03 02:48:53;;;;;;;0.20;0.20;;;;;;;10.12;100.00;96243.59;2563290;28;20055;-87
2024/01/03 02:50:10;;;;;;;0.50;0.40;;;;;;;9.83;100.00;96222.69;2557210;28;20121;-87
2024/01/03 02:51:26;;;;;;;0.43;0.40;;;;;;;9.81;100.00;96229.78;2561797;28;20150;-86
2024/01/03 02:52:42;;;;;;;0.40;0.40;;;;;;;9.91;100.00;96239.69;2557038;29;20519;-87
2024/01/03 02:53:58;;;;;;;0.10;0.10;;;;;;;9.97;100.00;96250.63;2563104;28;20157;-86
2024/01/03 02:55:14;;;;;;;0.22;0.20;;;;;;;9.82;100.00;96241.91;2567673;28;20050;-87
2024/01/03 02:56:37;;;;;;;0.20;0.20;;;;;;;9.85;100.00;96233.06;2550498;29;20087;-85
2024/01/03 02:57:52;;;;;;;;;;;;;;;9.85;100.00;96235.69;2560027;28;20194;-86
2024/01/03 02:59:10;;;;;;;0.20;0.20;;;;;;;9.95;100.00;96235.94;2559586;28;20413;-87
2024/01/03 03:00:26;;;;;;;0.30;0.30;;;;;;;9.83;100.00;96242.78;2566034;28;20042;-86
2024/01/03 03:01:41;;;;;;;0.25;0.20;;;;;;;9.89;100.00;96237.16;2562853;28;20224;-86
2024/01/03 03:02:58;;;;;;;0.30;0.30;;;;;;;9.80;100.00;96240.34;2550542;29;20040;-87
2024/01/03 03:04:14;;;;;;;1.38;0.25;;;;;;;10.02;100.00;96239.88;2558755;28;20094;-86
2024/01/03 03:05:30;;;;;;;0.13;0.13;;;;;;;9.91;100.00;96232.69;2552113;29;20043;-86
2024/01/03 03:06:47;;;;;;;0.50;0.32;;;;;;;9.80;100.00;96235.94;2552977;29;20098;-87
2024/01/03 03:08:04;;;;;;;0.20;0.20;;;;;;;9.93;100.00;96232.59;2565372;28;20030;-88
2024/01/03 03:09:20;;;;;;;0.73;0.30;;;;;;;9.91;100.00;96232.69;2558365;29;20693;-87
2024/01/03 03:10:36;;;;;;;0.30;0.30;;;;;;;9.85;100.00;96230.44;2564660;28;20046;-86
2024/01/03 03:11:52;;;;;;;0.57;0.43;;;;;;;9.85;100.00;96240.91;2574049;28;20051;-87
2024/01/03 03:13:08;;;;;;;0.25;0.25;;;;;;;9.97;100.00;96249.75;2562848;28;20094;-87
2024/01/03 03:14:24;;;;;;;0.47;0.25;;;;;;;9.89;100.00;96221.47;2560442;28;20043;-87
2024/01/03 03:15:42;;;;;;;0.22;0.22;;;;;;;9.83;100.00;96237.56;2562753;28;20078;-88
2024/01/03 03:16:58;;;;;;;0.57;0.30;;;;;;;9.98;100.00;96235.75;2556733;29;20047;-87
2024/01/03 03:18:14;;;;;;;1.30;0.30;;;;;;;9.91;100.00;96231.84;2549218;29;20469;-86
2024/01/03 03:19:31;;;;;;;1.88;0.40;;;;;;;9.91;100.00;96222.22;2563405;28;20042;-87
2024/01/03 03:20:47;;;;;;;1.67;0.28;;;;;;;9.93;100.00;96227.38;2558109;29;20047;-86
2024/01/03 03:22:04;;;;;;;1.33;0.60;;;;;;;9.91;100.00;96229.25;2558779;28;20046;-86
2024/01/03 03:23:19;;;;;;;0.22;0.22;;;;;;;9.91;100.00;96214.38;2570505;28;20133;-86
2024/01/03 03:24:36;;;;;;;0.28;0.20;;;;;;;9.92;100.00;96228.31;2566550;28;20047;-86
2024/01/03 03:25:52;;;;;;;0.40;0.30;;;;;;;9.86;100.00;96217.31;2573477;28;20047;-87
2024/01/03 03:27:08;;;;;;;0.25;0.25;;;;;;;9.83;100.00;96219.25;2572161;28;20102;-88
2024/01/03 03:28:24;;;;;;;0.20;0.20;;;;;;;9.83;100.00;96219.25;2562260;28;20047;-86
2024/01/03 03:29:40;;;;;;;0.50;0.20;;;;;;;9.75;100.00;96210.09;2567569;28;20050;-87
2024/01/03 03:30:56;;;;;;;0.57;0.40;;;;;;;9.68;100.00;96198.34;2575697;28;20455;-87
2024/01/03 03:32:12;;;;;;;0.47;0.35;;;;;;;9.93;100.00;96223.00;2558887;29;20125;-86
2024/01/03 03:33:32;;;;;;;1.45;0.40;;;;;;;9.78;100.00;96221.28;2554845;28;20047;-87
2024/01/03 03:34:50;;;;;;;0.35;0.35;;;;;;;9.81;100.00;96219.34;2558824;28;20117;-86
2024/01/03 03:36:15;;;;;;;0.22;0.22;;;;;;;9.83;100.00;96227.09;2568033;28;20093;-86
2024/01/03 03:37:31;;;;;;;0.32;0.28;;;;;;;10.01;100.00;96232.97;2573784;28;20035;-86
2024/01/03 03:38:47;;;;;;;0.40;0.40;;;;;;;9.91;100.00;96224.84;2553016;29;20027;-87
2024/01/03 03:40:03;;;;;;;0.40;0.40;;;;;;;9.93;100.00;96241.28;2561629;28;20101;-87
2024/01/03 03:41:22;;;;;;;0.52;0.28;;;;;;;9.85;100.00;96226.06;2568732;28;20415;-87
2024/01/03 03:42:38;;;;;;;1.80;0.40;;;;;;;9.90;100.00;96233.63;2569675;28;20436;-86
2024/01/03 03:43:55;;;;;;;0.63;0.43;;;;;;;9.84;100.00;96240.06;2562769;28;20051;-87
2024/01/03 03:45:13;;;;;;;1.50;0.80;;;;;;;9.92;100.00;96242.22;2569826;28;20410;-86
2024/01/03 03:46:29;;;;;;;1.17;0.55;;;;;;;9.96;100.00;96243.72;2573422;28;20061;-87
2024/01/03 03:47:47;;;;;;;0.65;0.40;;;;;;;9.94;100.00;96237.75;2560084;28;20067;-87
2024/01/03 03:49:03;;;;;;;0.50;0.30;;;;;;;10.02;100.00;96247.72;2547445;29;20046;-86
2024/01/03 03:50:19;;;;;;;0.47;0.30;;;;;;;9.96;100.00;96245.47;2556173;28;20054;-87
2024/01/03 03:51:36;;;;;;;0.95;0.40;;;;;;;9.89;100.00;96239.78;2555917;28;20042;-86
2024/01/03 03:52:52;;;;;;;0.40;0.40;;;;;;;10.01;100.00;96243.44;2561688;28;20171;-87
2024/01/03 03:54:09;;;;;;;0.85;0.40;;;;;;;9.98;100.00;96231.38;2562423;28;20038;-86
2024/01/03 04:07:12;;;;;;;0.30;0.30;;;;;;;10.06;100.00;96243.13;2653031;27;21142;-86
2024/01/03 04:08:28;;;;;;;0.60;0.30;;;;;;;9.99;100.00;96235.69;2641982;28;20047;-86
2024/01/03 04:09:44;;;;;;;0.20;0.20;;;;;;;10.11;100.00;96248.94;2635292;28;20036;-86
2024/01/03 04:11:05;;;;;;;0.70;0.50;;;;;;;9.99;100.00;96238.28;2641842;28;20020;-86
2024/01/03 04:12:21;;;;;;;0.30;0.30;;;;;;;9.95;100.00;96239.41;2635342;28;20066;-88
2024/01/03 04:13:40;;;;;;;0.38;0.38;;;;;;;9.87;100.00;96241.66;2635074;28;20490;-86
2024/01/03 04:14:56;;;;;;;0.30;0.30;;;;;;;9.97;100.00;96234.94;2634612;28;20044;-86
2024/01/03 04:16:13;;;;;;;0.98;0.40;;;;;;;9.83;100.00;96243.59;2635315;28;20028;-86
2024/01/03 04:17:29;;;;;;;0.32;0.25;;;;;;;9.92;100.00;96244.84;2624337;28;20044;-86
2024/01/03 04:18:46;;;;;;;0.28;0.28;;;;;;;9.84;100.00;96239.22;2618652;28;20651;-87
2024/01/03 04:20:02;;;;;;;1.42;0.40;;;;;;;9.87;100.00;96245.13;2628799;28;20166;-86
2024/01/03 04:21:19;;;;;;;0.40;0.40;;;;;;;9.88;100.00;96252.03;2641602;28;20114;-86
2024/01/03 04:22:35;;;;;;;1.65;0.30;;;;;;;9.73;100.00;96235.47;2642279;28;20088;-86
2024/01/03 04:23:51;;;;;;;2.20;0.50;;;;;;;9.80;100.00;96235.13;2640570;28;20052;-86
2024/01/03 04:25:09;;;;;;;0.68;0.30;;;;;;;9.80;100.00;96254.25;2635286;28;20101;-86
2024/01/03 04:26:28;;;;;;;0.60;0.50;;;;;;;9.77;100.00;96233.53;2634663;28;20043;-86
2024/01/03 04:27:47;;;;;;;1.08;0.50;;;;;;;9.73;100.00;96225.03;2624628;28;20033;-86
2024/01/03 04:29:03;;;;;;;0.52;0.40;;;;;;;9.72;100.00;96235.59;2636152;28;20032;-86
2024/01/03 04:30:20;;;;;;;1.13;0.50;;;;;;;9.67;100.00;96243.72;2641722;28;20051;-86
2024/01/03 04:31:37;;;;;;;1.67;0.60;;;;;;;9.63;100.00;96236.97;2624822;28;20133;-86
2024/01/03 04:32:54;;;;;;;0.77;0.32;;;;;;;9.81;100.00;96239.41;2617866;28;20048;-86
2024/01/03 04:34:09;;;;;;;0.98;0.35;;;;;;;9.77;100.00;96241.38;2628948;28;20032;-86
2024/01/03 04:35:25;;;;;;;0.20;0.20;;;;;;;9.78;100.00;96231.75;2635042;28;20081;-86
2024/01/03 04:36:41;;;;;;;0.32;0.25;;;;;;;9.76;100.00;96237.09;2634725;28;20518;-86
2024/01/03 04:38:02;;;;;;;0.40;0.40;;;;;;;9.79;100.00;96236.88;2613987;28;20044;-87
2024/01/03 04:39:18;;;;;;;0.28;0.28;;;;;;;9.79;100.00;96247.34;2619538;28;20097;-87
2024/01/03 04:40:34;;;;;;;1.95;0.43;;;;;;;9.79;100.00;96249.94;2635646;28;20394;-88
2024/01/03 04:41:51;;;;;;;0.50;0.50;;;;;;;9.70;100.00;96238.28;2641595;28;20036;-88
2024/01/03 04:43:07;;;;;;;1.25;0.68;;;;;;;9.79;100.00;96249.94;2641137;28;20067;-88
2024/01/03 04:44:23;;;;;;;0.52;0.40;;;;;;;9.91;100.00;96244.91;2620534;28;20041;-86
2024/01/03 04:45:39;;;;;;;2.00;0.60;;;;;;;9.68;100.00;96242.78;2632565;28;20043;-87
2024/01/03 04:46:55;;;;;;;0.43;0.35;;;;;;;9.64;100.00;96282.22;2630491;28;20039;-87
2024/01/03 04:48:12;;;;;;;1.52;0.45;;;;;;;9.68;100.00;96247.13;2635822;28;20123;-87
2024/01/03 04:49:31;;;;;;;0.30;0.30;;;;;;;9.78;100.00;96239.59;2630299;28;20042;-86
2024/01/03 04:50:47;;;;;;;0.70;0.50;;;;;;;9.72;100.00;96246.88;2624203;28;20078;-87
2024/01/03 04:52:03;;;;;;;0.40;0.40;;;;;;;9.81;100.00;96265.56;2635194;28;20035;-88
2024/01/03 04:53:19;;;;;;;0.50;0.30;;;;;;;9.73;100.00;96227.66;2624399;28;20040;-86
2024/01/03 04:54:35;;;;;;;1.73;0.70;;;;;;;9.66;100.00;96251.63;2634783;28;20372;-87
2024/01/03 04:55:51;;;;;;;1.17;0.47;;;;;;;9.75;100.00;96249.28;2630546;28;20102;-87
2024/01/03 04:57:08;;;;;;;0.55;0.30;;;;;;;9.80;100.00;96256.03;2634680;28;20046;-86
2024/01/03 04:58:24;;;;;;;0.63;0.40;;;;;;;9.67;100.00;96253.31;2634530;28;20153;-87
2024/01/03 04:59:42;;;;;;;0.55;0.28;;;;;;;9.69;100.00;96246.19;2623907;28;20473;-87
2024/01/03 05:00:58;;;;;;;0.20;0.20;;;;;;;9.68;100.00;96253.22;2633135;28;20032;-87
2024/01/03 05:02:14;;;;;;;1.77;0.40;;;;;;;9.82;100.00;96246.31;2629550;28;20036;-87
2024/01/03 05:03:31;;;;;;;1.48;0.30;;;;;;;9.66;100.00;96246.41;2612748;28;20055;-87
2024/01/03 05:04:48;;;;;;;0.45;0.45;;;;;;;9.71;100.00;96246.97;2612585;28;20123;-87
2024/01/03 05:06:07;;;;;;;0.55;0.40;;;;;;;9.75;100.00;96259.75;2634721;28;20056;-88
2024/01/03 05:07:24;;;;;;;0.80;0.50;;;;;;;9.73;100.00;96256.38;2637770;28;20048;-87
2024/01/03 05:08:40;;;;;;;0.40;0.40;;;;;;;9.86;100.00;96258.25;2634135;28;20064;-87
2024/01/03 05:09:56;;;;;;;0.60;0.32;;;;;;;9.73;100.00;96277.28;2627942;28;20544;-87
2024/01/03 05:11:12;;;;;;;0.68;0.40;;;;;;;9.76;100.00;96265.81;2634819;28;20032;-86
2024/01/03 05:12:29;;;;;;;0.60;0.50;;;;;;;9.74;100.00;96272.91;2623074;28;20036;-87
2024/01/03 05:13:45;;;;;;;0.57;0.40;;;;;;;9.84;100.00;96260.13;2621722;28;20110;-87
2024/01/03 05:15:03;;;;;;;0.68;0.40;;;;;;;9.76;100.00;96250.16;2623479;28;20499;-86
2024/01/03 05:16:21;;;;;;;0.55;0.35;;;;;;;9.75;100.00;96269.38;2633313;28;20028;-87
2024/01/03 05:17:37;;;;;;;1.13;0.30;;;;;;;9.79;100.00;96264.81;2635484;28;20043;-87
2024/01/03 05:18:58;;;;;;;0.75;0.40;;;;;;;9.73;100.00;96269.44;2634811;28;20035;-87
2024/01/03 05:20:19;;;;;;;0.68;0.52;;;;;;;9.79;100.00;96272.66;2619188;28;20043;-87
2024/01/03 05:21:35;;;;;;;0.30;0.25;;;;;;;9.82;100.00;96278.50;2628755;28;20502;-88
2024/01/03 05:22:52;;;;;;;1.75;0.43;;;;;;;9.82;100.00;96277.69;2634162;28;20495;-87
2024/01/03 05:24:07;;;;;;;0.32;0.30;;;;;;;9.72;100.00;96275.63;2633419;28;20098;-87
2024/01/03 05:25:23;;;;;;;1.15;0.50;;;;;;;9.70;100.00;96285.31;2627447;28;20020;-87
2024/01/03 05:26:39;;;;;;;0.98;0.30;;;;;;;9.59;100.00;96282.50;2633500;28;20036;-88
2024/01/03 05:27:56;;;;;;;1.45;0.47;;;;;;;9.61;100.00;96276.25;2627042;28;20032;-88
2024/01/03 05:29:13;;;;;;;0.93;0.45;;;;;;;9.67;100.00;96275.06;2616540;28;20479;-87
2024/01/03 05:30:29;;;;;;;1.77;0.65;;;;;;;9.62;100.00;96290.16;2620322;28;20028;-87
2024/01/03 05:31:46;;;;;;;1.08;0.50;;;;;;;9.77;100.00;96272.72;2616860;28;20070;-87
2024/01/03 05:33:04;;;;;;;0.82;0.57;;;;;;;9.60;100.00;96278.94;2621858;28;20080;-87
2024/01/03 05:34:19;;;;;;;0.70;0.50;;;;;;;9.70;100.00;96267.03;2627358;28;20031;-87
2024/01/03 05:35:36;;;;;;;1.52;0.75;;;;;;;9.62;100.00;96261.41;2633499;28;20479;-87
2024/01/03 05:36:52;;;;;;;1.65;0.60;;;;;;;9.69;100.00;96267.09;2635081;28;20099;-87
2024/01/03 05:38:09;;;;;;;0.63;0.50;;;;;;;9.75;100.00;96283.25;2634079;28;20028;-87
2024/01/03 05:39:26;;;;;;;0.82;0.40;;;;;;;9.78;100.00;96263.97;2616959;28;20128;-87
2024/01/03 05:40:41;;;;;;;1.38;0.60;;;;;;;9.67;100.00;96274.19;2621223;28;20058;-87
2024/01/03 05:41:57;;;;;;;2.90;0.60;;;;;;;9.78;100.00;96284.00;2624239;28;20415;-86
2024/01/03 05:43:14;;;;;;;1.00;0.60;;;;;;;9.68;100.00;96281.97;2616196;28;20033;-86
2024/01/03 05:44:32;;;;;;;1.48;0.80;;;;;;;9.70;100.00;96282.72;2621224;28;20356;-87
2024/01/03 05:45:49;;;;;;;0.55;0.40;;;;;;;9.67;100.00;96277.66;2602401;28;20049;-87
2024/01/03 05:47:05;;;;;;;1.92;1.05;;;;;;;9.73;100.00;96285.13;2609654;28;20028;-87
2024/01/03 05:48:21;;;;;;;0.60;0.55;;;;;;;9.68;100.00;96284.56;2627488;28;20035;-86
2024/01/03 05:49:37;;;;;;;2.10;0.70;;;;;;;9.61;100.00;96275.41;2616744;28;20092;-86
2024/01/03 05:50:54;;;;;;;0.90;0.60;;;;;;;9.80;100.00;96293.44;2621336;28;20070;-86
2024/01/03 05:52:10;;;;;;;2.25;0.93;;;;;;;9.73;100.00;96292.97;2631463;28;20051;-86
2024/01/03 05:53:27;;;;;;;1.63;0.93;;;;;;;9.56;100.00;96287.91;2626935;28;20074;-86
2024/01/03 05:54:43;;;;;;;1.23;0.70;;;;;;;9.60;100.00;96295.47;2615440;28;20159;-87
2024/01/03 05:56:00;;;;;;;0.38;0.38;;;;;;;9.73;100.00;96300.81;2618667;28;20068;-87
2024/01/03 05:57:17;;;;;;;3.08;0.77;;;;;;;9.70;100.00;96285.31;2626998;28;20032;-87
2024/01/03 05:58:33;;;;;;;2.92;0.45;;;;;;;9.64;100.00;96300.50;2633486;28;20061;-86
2024/01/03 05:59:49;;;;;;;0.63;0.30;;;;;;;9.69;100.00;96303.69;2633870;28;20394;-87
2024/01/03 06:01:06;;;;;;;0.80;0.40;;;;;;;9.71;100.00;96297.44;2622382;28;20040;-86
2024/01/03 06:02:22;;;;;;;2.13;0.40;;;;;;;9.63;100.00;96289.22;2609928;28;20164;-86
2024/01/03 06:03:38;;;;;;;0.95;0.70;;;;;;;9.66;100.00;96309.09;2618024;28;20032;-86
2024/01/03 06:04:54;;;;;;;2.55;0.90;;;;;;;9.63;100.00;96293.63;2616294;28;20079;-86
2024/01/03 06:06:10;;;;;;;1.05;0.40;;;;;;;9.65;100.00;96295.22;2626430;28;20101;-87
2024/01/03 06:07:27;;;;;;;2.63;0.90;;;;;;;9.55;100.00;96291.44;2616424;28;20049;-87
2024/01/03 06:08:43;;;;;;;0.77;0.47;;;;;;;9.65;100.00;96304.81;2609349;28;20086;-86
2024/01/03 06:09:59;;;;;;;1.85;0.60;;;;;;;9.53;100.00;96303.75;2627490;28;20440;-86
2024/01/03 06:11:15;;;;;;;1.17;0.70;;;;;;;9.59;100.00;96308.63;2612204;28;20512;-87
2024/01/03 06:12:31;;;;;;;0.85;0.50;;;;;;;9.64;100.00;96306.59;2614165;28;20028;-86
2024/01/03 06:13:47;;;;;;;9.30;4.53;;;;;;;9.66;100.00;96306.50;2615842;28;20105;-86
2024/01/03 06:15:05;;;;;;;2.55;0.77;;;;;;;9.53;100.00;96311.59;2620286;28;20105;-86